New Philadelphia, OH (44663)

11:08 AM EST on February 22, 2017 (GMT -0500)
Steele Hill | | Change Station

Elev 942 ft 40.48 °N, 81.48 °W | Updated 10 seconds ago

Overcast
Overcast
56.9 °F
Feels Like 56.9 °F
N
1.0
Wind Variable Wind from SW
Gusts 3.0 mph

Today
High -- | Low -- °F
--% Chance of Precip.
Yesterday
High -- | Low -- °F
Precip. -- in
Pressure 29.94 in
Visibility 9.0 miles
Clouds Scattered Clouds 1500 ft
Mostly Cloudy 4800 ft
Overcast 5500 ft
Dew Point 54 °F
Humidity 89%
Rainfall 0.00 in
Snow Depth Not available.
7:09 AM 6:09 PM
Waning Crescent, 16% visible
METAR KPHD 221553Z AUTO 12003KT 9SM SCT015 BKN048 OVC055 12/11 A2994 RMK AO2 SLP139 T01220106
Pressure 29.94 in
Visibility 9.0 miles
Clouds Scattered Clouds 1500 ft
Mostly Cloudy 4800 ft
Overcast 5500 ft
Dew Point 54 °F
Humidity 89%
Rainfall 0.00 in
Snow Depth Not available.
7:09 AM 6:09 PM
Waning Crescent, 16% visible
METAR KPHD 221553Z AUTO 12003KT 9SM SCT015 BKN048 OVC055 12/11 A2994 RMK AO2 SLP139 T01220106

Get Your Daily Forecast Email!

Thanks for signing up!

Be on the lookout for a verification email in your inbox.

You'll start receiving the daily forecast at 8 AM.

×

10-Day Weather Forecast

Almanac

Astronomy

Feb. 22, 2017 Rise Set
Actual Time
Civil Twilight
Nautical Twilight
Astronomical Twilight
Moon
Length of Visible Light
Length of Day
Tomorrow will be .
, % of the Moon is Illuminated

Today's Extremes

State Highs State Lows

Community

WunderPhotos

Upload Photos

1,962,540 photos uploaded!

WunderBlog® & News

Nearby

Air Quality

  Air Quality AQ Index Pollutant
Not available.

Snow Depth

Station Depth Elevation

Earthquake Activity

City Distance Mag. Time & Date
Minimum magnitude displayed is 2.5.

Coastal Water Temperatures

Place Temperature

Stations

Nearby Weather Stations

Station Location Temp. Windchill Dew Point Humidity Wind Precip. Elev Updated Type
                   

Watches & Warnings

There are currently no watches in effect.